createdAt,value
2023-02-26T00:04:03.926Z,40.61
2023-02-26T00:09:06.571Z,40.19
2023-02-26T00:14:13.363Z,41.91
2023-02-26T00:19:15.456Z,41.11
2023-02-26T00:24:17.360Z,42.76
2023-02-26T00:29:19.512Z,42.41
2023-02-26T00:34:21.712Z,44.00
2023-02-26T00:39:32.671Z,41.24
2023-02-26T00:44:34.827Z,44.22
2023-02-26T00:49:45.650Z,42.87
2023-02-26T00:54:47.850Z,42.46
2023-02-26T00:59:49.870Z,44.77
2023-02-26T01:04:52.234Z,41.99
2023-02-26T01:09:54.760Z,40.43
2023-02-26T01:14:56.912Z,40.60
2023-02-26T01:20:06.873Z,41.99
2023-02-26T01:25:18.186Z,41.18
2023-02-26T01:30:20.841Z,40.66
2023-02-26T01:35:53.069Z,40.20
2023-02-26T01:41:16.238Z,45.39
2023-02-26T01:46:36.852Z,43.81
2023-02-26T01:51:49.499Z,42.13
2023-02-26T01:57:12.340Z,41.17
2023-02-26T02:02:18.884Z,39.65
2023-02-26T02:07:20.972Z,41.48
2023-02-26T02:12:51.242Z,46.08
2023-02-26T02:17:54.968Z,45.54
2023-02-26T02:23:21.776Z,49.02
2023-02-26T02:28:57.938Z,42.20
2023-02-26T02:34:19.433Z,40.16
2023-02-26T02:39:58.809Z,39.68
2023-02-26T02:45:19.359Z,38.80
2023-02-26T02:50:30.285Z,42.37
2023-02-26T02:55:38.450Z,45.17
2023-02-26T03:00:48.659Z,40.33
2023-02-26T03:05:50.445Z,43.52
2023-02-26T03:10:52.367Z,44.07
2023-02-26T03:16:31.157Z,43.09
2023-02-26T03:21:51.935Z,40.83
2023-02-26T03:27:23.468Z,41.82
2023-02-26T03:32:50.826Z,48.11
2023-02-26T03:38:01.396Z,49.40
2023-02-26T03:43:13.672Z,43.17
2023-02-26T03:48:21.783Z,45.83
2023-02-26T03:53:38.206Z,40.51
2023-02-26T03:58:47.889Z,40.97
2023-02-26T04:04:23.834Z,40.10
2023-02-26T04:09:26.689Z,39.57
2023-02-26T04:14:28.460Z,42.75
2023-02-26T04:19:30.332Z,40.89
2023-02-26T04:24:32.278Z,40.48
2023-02-26T04:29:37.557Z,42.36
2023-02-26T04:34:39.600Z,44.54
2023-02-26T04:39:42.116Z,41.13
2023-02-26T04:44:45.641Z,44.75
2023-02-26T04:49:48.601Z,44.46
2023-02-26T04:54:50.419Z,46.00
2023-02-26T04:59:52.395Z,45.71
2023-02-26T05:04:57.899Z,45.29
2023-02-26T05:09:59.706Z,42.74
2023-02-26T05:15:02.005Z,46.33
2023-02-26T05:20:05.684Z,44.42
2023-02-26T05:25:08.213Z,42.12
2023-02-26T05:30:13.273Z,44.30
2023-02-26T05:35:15.291Z,42.93
2023-02-26T05:40:17.221Z,41.31
2023-02-26T05:45:19.281Z,41.31
2023-02-26T05:50:21.044Z,42.02
2023-02-26T05:55:22.766Z,43.13
2023-02-26T06:00:24.556Z,41.72
2023-02-26T06:05:26.498Z,40.79
2023-02-26T06:10:28.303Z,43.69
2023-02-26T06:15:30.086Z,46.30
2023-02-26T06:20:31.938Z,44.47
2023-02-26T06:25:33.701Z,46.60
2023-02-26T06:30:35.895Z,43.04
2023-02-26T06:35:37.829Z,43.68
2023-02-26T06:40:39.782Z,44.47
2023-02-26T06:45:41.808Z,43.27
2023-02-26T06:50:43.656Z,45.60
2023-02-26T06:55:46.915Z,41.65
2023-02-26T07:00:48.780Z,44.41
2023-02-26T07:05:50.832Z,44.22
2023-02-26T07:10:52.714Z,41.27
2023-02-26T07:15:54.499Z,40.90
2023-02-26T07:20:56.416Z,39.49
2023-02-26T07:25:58.334Z,39.91
2023-02-26T07:31:00.891Z,38.87
2023-02-26T07:36:02.952Z,42.52
2023-02-26T07:41:05.212Z,43.05
2023-02-26T07:46:07.231Z,40.11
2023-02-26T07:51:10.966Z,43.39
2023-02-26T07:56:12.805Z,40.78
2023-02-26T08:01:14.705Z,41.23
2023-02-26T08:06:16.694Z,39.60
2023-02-26T08:11:18.458Z,38.72
2023-02-26T08:16:20.682Z,39.52
2023-02-26T08:21:23.362Z,41.19
2023-02-26T08:26:25.720Z,39.22
2023-02-26T08:31:28.521Z,44.19
2023-02-26T08:36:31.396Z,44.41
2023-02-26T08:41:36.103Z,41.61
2023-02-26T08:46:38.017Z,43.25
2023-02-26T08:51:39.852Z,42.12
2023-02-26T08:56:41.786Z,38.91
2023-02-26T09:01:43.725Z,38.77
2023-02-26T09:06:45.784Z,37.98
2023-02-26T09:11:47.913Z,41.18
2023-02-26T09:16:51.220Z,41.66
2023-02-26T09:21:53.143Z,41.90
2023-02-26T09:26:55.070Z,38.62
2023-02-26T09:31:57.102Z,38.52
2023-02-26T09:36:58.968Z,40.08
2023-02-26T09:42:25.307Z,40.81
2023-02-26T09:47:39.246Z,40.61
2023-02-26T09:52:51.115Z,39.80
2023-02-26T09:58:00.124Z,40.92
2023-02-26T10:03:10.305Z,39.17
2023-02-26T10:08:16.162Z,39.17
2023-02-26T10:13:23.711Z,43.84
2023-02-26T10:18:32.733Z,41.65
2023-02-26T10:23:45.005Z,38.44
2023-02-26T10:28:55.989Z,37.30
2023-02-26T10:34:16.099Z,36.37
2023-02-26T10:39:43.679Z,36.48
2023-02-26T10:44:57.764Z,39.20
2023-02-26T10:50:05.687Z,35.64
2023-02-26T10:55:26.352Z,39.15
2023-02-26T11:00:28.348Z,39.85
2023-02-26T11:05:32.830Z,41.09
2023-02-26T11:11:00.877Z,37.00
2023-02-26T11:16:06.574Z,41.42
2023-02-26T11:21:17.101Z,43.28
2023-02-26T11:26:25.893Z,36.82
2023-02-26T11:31:29.081Z,38.37
2023-02-26T11:36:33.595Z,38.44
2023-02-26T11:41:38.878Z,34.97
2023-02-26T11:46:52.773Z,36.12
2023-02-26T11:52:19.650Z,33.82
2023-02-26T11:57:27.764Z,35.44
2023-02-26T12:02:36.822Z,35.76
2023-02-26T12:07:38.769Z,33.67
2023-02-26T12:13:07.627Z,32.74
2023-02-26T12:18:29.210Z,31.92
2023-02-26T12:23:39.934Z,31.98
2023-02-26T12:28:47.395Z,29.70
2023-02-26T12:34:06.243Z,30.63
2023-02-26T12:39:32.651Z,31.61
2023-02-26T12:45:00.137Z,32.26
2023-02-26T12:50:17.181Z,32.52
2023-02-26T12:55:39.906Z,29.43
2023-02-26T13:01:19.718Z,31.16
2023-02-26T13:06:43.609Z,33.63
2023-02-26T13:12:19.355Z,33.40
2023-02-26T13:17:47.442Z,31.32
2023-02-26T13:22:55.376Z,31.53
2023-02-26T13:28:01.229Z,31.68
2023-02-26T13:33:03.320Z,31.84
2023-02-26T13:38:16.701Z,32.93
2023-02-26T13:43:41.510Z,30.02
2023-02-26T13:48:49.138Z,27.77
2023-02-26T13:54:04.482Z,28.38
2023-02-26T13:59:12.336Z,30.17
2023-02-26T14:04:21.659Z,36.05
2023-02-26T14:09:23.570Z,32.79
2023-02-26T14:14:30.150Z,32.75
2023-02-26T14:19:38.985Z,31.35
2023-02-26T14:25:04.956Z,29.60
2023-02-26T14:30:09.783Z,29.13
2023-02-26T14:35:16.463Z,32.01
2023-02-26T14:40:21.675Z,30.87
2023-02-26T14:45:36.785Z,30.13
2023-02-26T14:50:47.923Z,30.66
2023-02-26T14:55:59.721Z,30.94
2023-02-26T15:01:19.367Z,33.57
2023-02-26T15:06:28.642Z,32.35
2023-02-26T15:11:41.873Z,31.49
2023-02-26T15:17:15.925Z,32.77
2023-02-26T15:22:30.423Z,31.46
2023-02-26T15:27:33.425Z,30.01
2023-02-26T15:32:38.293Z,30.27
2023-02-26T15:37:40.216Z,29.55
2023-02-26T15:42:45.214Z,30.07
2023-02-26T15:47:54.236Z,31.11
2023-02-26T15:53:00.496Z,29.94
2023-02-26T15:58:05.283Z,30.82
2023-02-26T16:03:07.364Z,29.86
2023-02-26T16:08:14.975Z,28.18
2023-02-26T16:13:27.781Z,30.04
2023-02-26T16:18:32.828Z,29.48
2023-02-26T16:23:46.379Z,28.29
2023-02-26T16:28:54.058Z,27.48
2023-02-26T16:34:24.658Z,32.23
2023-02-26T16:39:31.249Z,33.26
2023-02-26T16:45:22.031Z,30.41
2023-02-26T16:50:29.984Z,34.34
2023-02-26T16:55:35.294Z,31.42
2023-02-26T17:00:38.490Z,31.17
2023-02-26T17:05:48.864Z,29.75
2023-02-26T17:10:55.479Z,32.82
2023-02-26T17:16:06.898Z,30.10
2023-02-26T17:21:10.327Z,29.76
2023-02-26T17:26:12.604Z,29.93
2023-02-26T17:31:15.176Z,29.25
2023-02-26T17:36:18.732Z,29.42
2023-02-26T17:41:20.892Z,30.12
2023-02-26T17:46:22.859Z,29.77
2023-02-26T17:51:24.823Z,33.69
2023-02-26T17:56:31.654Z,32.51
2023-02-26T18:01:33.583Z,31.29
2023-02-26T18:06:37.714Z,29.73
2023-02-26T18:11:41.827Z,30.01
2023-02-26T18:16:45.394Z,29.65
2023-02-26T18:21:47.364Z,30.21
2023-02-26T18:26:49.638Z,33.11
2023-02-26T18:31:51.634Z,34.54
2023-02-26T18:36:53.734Z,34.61
2023-02-26T18:41:55.562Z,33.73
2023-02-26T18:46:57.521Z,34.41
2023-02-26T18:51:59.387Z,32.89
2023-02-26T18:57:01.315Z,33.63
2023-02-26T19:02:04.872Z,32.00
2023-02-26T19:07:08.765Z,30.81
2023-02-26T19:12:14.518Z,30.05
2023-02-26T19:17:16.408Z,31.63
2023-02-26T19:22:18.418Z,32.58
2023-02-26T19:27:20.832Z,32.98
2023-02-26T19:32:22.935Z,31.70
2023-02-26T19:37:25.031Z,29.82
2023-02-26T19:42:28.430Z,30.39
2023-02-26T19:47:30.412Z,32.15
2023-02-26T19:52:33.818Z,32.74
2023-02-26T19:57:36.650Z,35.03
2023-02-26T20:02:39.087Z,32.39
2023-02-26T20:07:41.048Z,32.62
2023-02-26T20:12:44.671Z,31.32
2023-02-26T20:17:46.828Z,32.85
2023-02-26T20:22:49.243Z,34.52
2023-02-26T20:27:51.921Z,31.68
2023-02-26T20:32:54.041Z,31.47
2023-02-26T20:37:56.282Z,30.78
2023-02-26T20:42:58.657Z,30.93
2023-02-26T20:48:01.216Z,32.56
2023-02-26T20:53:05.250Z,31.80
2023-02-26T20:58:07.583Z,31.54
2023-02-26T21:03:09.967Z,30.58
2023-02-26T21:08:13.917Z,31.36
2023-02-26T21:13:16.102Z,30.42
2023-02-26T21:18:18.320Z,31.29
2023-02-26T21:23:20.596Z,30.06
2023-02-26T21:28:23.010Z,33.52
2023-02-26T21:33:24.871Z,33.78
2023-02-26T21:38:27.538Z,31.90
2023-02-26T21:43:29.628Z,30.30
2023-02-26T21:48:31.711Z,29.51
2023-02-26T21:53:33.557Z,30.36
2023-02-26T21:58:35.379Z,33.48
2023-02-26T22:03:38.156Z,34.19
2023-02-26T22:08:39.940Z,33.07
2023-02-26T22:13:41.772Z,30.80
2023-02-26T22:18:43.891Z,32.20
2023-02-26T22:23:45.716Z,31.17
2023-02-26T22:28:47.824Z,29.92
2023-02-26T22:33:49.615Z,29.85
2023-02-26T22:38:51.505Z,29.82
2023-02-26T22:43:54.126Z,31.52
2023-02-26T22:48:56.261Z,30.15
2023-02-26T22:53:58.491Z,34.41
2023-02-26T22:59:00.425Z,32.25
2023-02-26T23:04:02.284Z,30.84
2023-02-26T23:09:05.952Z,30.60
2023-02-26T23:14:08.138Z,29.68
2023-02-26T23:19:10.958Z,28.99
2023-02-26T23:24:13.033Z,28.76
2023-02-26T23:29:15.018Z,29.96
2023-02-26T23:34:17.092Z,29.15
2023-02-26T23:39:18.998Z,28.33
2023-02-26T23:44:21.443Z,29.98
2023-02-26T23:49:23.316Z,29.70
2023-02-26T23:54:25.193Z,29.20
2023-02-26T23:59:27.059Z,31.69
